sensor_id;sensor_type;location;lat;lon;timestamp;P1;durP1;ratioP1;P2;durP2;ratioP2
7027;SDS011;3555;53.248;10.336;2023-05-20T00:01:42;1.60;;;1.15;;
7027;SDS011;3555;53.248;10.336;2023-05-20T00:04:08;1.80;;;0.90;;
7027;SDS011;3555;53.248;10.336;2023-05-20T00:06:35;2.05;;;1.05;;
7027;SDS011;3555;53.248;10.336;2023-05-20T00:09:02;1.90;;;1.00;;
7027;SDS011;3555;53.248;10.336;2023-05-20T00:11:29;1.60;;;0.85;;
7027;SDS011;3555;53.248;10.336;2023-05-20T00:13:56;1.97;;;1.10;;
7027;SDS011;3555;53.248;10.336;2023-05-20T00:16:23;3.03;;;1.10;;
7027;SDS011;3555;53.248;10.336;2023-05-20T00:18:51;2.87;;;1.13;;
7027;SDS011;3555;53.248;10.336;2023-05-20T00:21:18;2.63;;;0.87;;
7027;SDS011;3555;53.248;10.336;2023-05-20T00:23:45;1.98;;;0.98;;
7027;SDS011;3555;53.248;10.336;2023-05-20T00:26:12;1.48;;;0.93;;
7027;SDS011;3555;53.248;10.336;2023-05-20T00:28:39;2.07;;;1.20;;
7027;SDS011;3555;53.248;10.336;2023-05-20T00:31:06;3.53;;;1.37;;
7027;SDS011;3555;53.248;10.336;2023-05-20T00:33:33;1.42;;;1.00;;
7027;SDS011;3555;53.248;10.336;2023-05-20T00:36:01;2.00;;;1.20;;
7027;SDS011;3555;53.248;10.336;2023-05-20T00:38:28;1.50;;;1.00;;
7027;SDS011;3555;53.248;10.336;2023-05-20T00:40:55;4.15;;;1.30;;
7027;SDS011;3555;53.248;10.336;2023-05-20T00:43:22;2.08;;;0.98;;
7027;SDS011;3555;53.248;10.336;2023-05-20T00:45:50;2.22;;;1.20;;
7027;SDS011;3555;53.248;10.336;2023-05-20T00:48:18;1.15;;;0.90;;
7027;SDS011;3555;53.248;10.336;2023-05-20T00:50:46;1.85;;;1.00;;
7027;SDS011;3555;53.248;10.336;2023-05-20T00:53:14;2.20;;;1.10;;
7027;SDS011;3555;53.248;10.336;2023-05-20T00:55:43;2.87;;;1.27;;
7027;SDS011;3555;53.248;10.336;2023-05-20T00:58:10;2.83;;;1.30;;
7027;SDS011;3555;53.248;10.336;2023-05-20T01:00:37;2.00;;;1.40;;
7027;SDS011;3555;53.248;10.336;2023-05-20T01:03:04;6.90;;;1.33;;
7027;SDS011;3555;53.248;10.336;2023-05-20T01:05:31;1.53;;;1.00;;
7027;SDS011;3555;53.248;10.336;2023-05-20T01:07:58;3.20;;;1.17;;
7027;SDS011;3555;53.248;10.336;2023-05-20T01:10:27;1.60;;;1.10;;
7027;SDS011;3555;53.248;10.336;2023-05-20T01:12:56;4.00;;;1.10;;
7027;SDS011;3555;53.248;10.336;2023-05-20T01:15:26;2.30;;;1.10;;
7027;SDS011;3555;53.248;10.336;2023-05-20T01:17:56;1.90;;;1.10;;
7027;SDS011;3555;53.248;10.336;2023-05-20T01:20:26;1.73;;;1.00;;
7027;SDS011;3555;53.248;10.336;2023-05-20T01:22:55;2.90;;;1.07;;
7027;SDS011;3555;53.248;10.336;2023-05-20T01:25:22;2.03;;;1.10;;
7027;SDS011;3555;53.248;10.336;2023-05-20T01:27:50;1.77;;;1.10;;
7027;SDS011;3555;53.248;10.336;2023-05-20T01:30:19;1.90;;;1.00;;
7027;SDS011;3555;53.248;10.336;2023-05-20T01:32:49;3.90;;;1.10;;
7027;SDS011;3555;53.248;10.336;2023-05-20T01:35:21;1.73;;;1.20;;
7027;SDS011;3555;53.248;10.336;2023-05-20T01:37:49;2.33;;;1.17;;
7027;SDS011;3555;53.248;10.336;2023-05-20T01:40:18;1.77;;;0.90;;
7027;SDS011;3555;53.248;10.336;2023-05-20T01:42:47;3.90;;;1.33;;
7027;SDS011;3555;53.248;10.336;2023-05-20T01:45:17;1.97;;;1.10;;
7027;SDS011;3555;53.248;10.336;2023-05-20T01:47:44;4.73;;;1.10;;
7027;SDS011;3555;53.248;10.336;2023-05-20T01:50:11;3.77;;;1.13;;
7027;SDS011;3555;53.248;10.336;2023-05-20T01:52:38;2.57;;;1.10;;
7027;SDS011;3555;53.248;10.336;2023-05-20T01:55:05;1.57;;;1.00;;
7027;SDS011;3555;53.248;10.336;2023-05-20T01:57:34;1.50;;;0.90;;
7027;SDS011;3555;53.248;10.336;2023-05-20T02:00:01;2.83;;;0.90;;
7027;SDS011;3555;53.248;10.336;2023-05-20T02:02:28;1.63;;;1.10;;
7027;SDS011;3555;53.248;10.336;2023-05-20T02:04:55;5.23;;;1.53;;
7027;SDS011;3555;53.248;10.336;2023-05-20T02:07:21;3.50;;;1.17;;
7027;SDS011;3555;53.248;10.336;2023-05-20T02:09:48;2.00;;;1.10;;
7027;SDS011;3555;53.248;10.336;2023-05-20T02:12:15;1.70;;;1.10;;
7027;SDS011;3555;53.248;10.336;2023-05-20T02:14:43;2.20;;;1.20;;
7027;SDS011;3555;53.248;10.336;2023-05-20T02:17:11;2.80;;;1.20;;
7027;SDS011;3555;53.248;10.336;2023-05-20T02:19:40;1.93;;;1.00;;
7027;SDS011;3555;53.248;10.336;2023-05-20T02:22:07;1.83;;;1.20;;
7027;SDS011;3555;53.248;10.336;2023-05-20T02:24:34;2.00;;;1.13;;
7027;SDS011;3555;53.248;10.336;2023-05-20T02:27:01;1.97;;;1.10;;
7027;SDS011;3555;53.248;10.336;2023-05-20T02:29:28;3.10;;;1.00;;
7027;SDS011;3555;53.248;10.336;2023-05-20T02:31:57;3.57;;;1.10;;
7027;SDS011;3555;53.248;10.336;2023-05-20T02:34:24;1.77;;;1.00;;
7027;SDS011;3555;53.248;10.336;2023-05-20T02:36:51;3.03;;;1.20;;
7027;SDS011;3555;53.248;10.336;2023-05-20T02:39:18;1.50;;;1.00;;
7027;SDS011;3555;53.248;10.336;2023-05-20T02:41:45;5.00;;;1.10;;
7027;SDS011;3555;53.248;10.336;2023-05-20T02:44:12;1.13;;;0.90;;
7027;SDS011;3555;53.248;10.336;2023-05-20T02:46:39;2.20;;;1.10;;
7027;SDS011;3555;53.248;10.336;2023-05-20T02:49:07;1.40;;;0.87;;
7027;SDS011;3555;53.248;10.336;2023-05-20T02:51:34;2.37;;;1.00;;
7027;SDS011;3555;53.248;10.336;2023-05-20T02:54:01;1.87;;;1.00;;
7027;SDS011;3555;53.248;10.336;2023-05-20T02:56:28;2.27;;;1.00;;
7027;SDS011;3555;53.248;10.336;2023-05-20T02:58:56;1.30;;;1.00;;
7027;SDS011;3555;53.248;10.336;2023-05-20T03:01:24;2.50;;;1.17;;
7027;SDS011;3555;53.248;10.336;2023-05-20T03:03:51;2.60;;;1.30;;
7027;SDS011;3555;53.248;10.336;2023-05-20T03:06:19;2.90;;;1.03;;
7027;SDS011;3555;53.248;10.336;2023-05-20T03:08:46;1.43;;;1.00;;
7027;SDS011;3555;53.248;10.336;2023-05-20T03:11:13;1.93;;;1.10;;
7027;SDS011;3555;53.248;10.336;2023-05-20T03:13:40;2.97;;;1.50;;
7027;SDS011;3555;53.248;10.336;2023-05-20T03:16:06;1.33;;;0.97;;
7027;SDS011;3555;53.248;10.336;2023-05-20T03:18:33;2.30;;;1.10;;
7027;SDS011;3555;53.248;10.336;2023-05-20T03:21:00;2.13;;;1.10;;
7027;SDS011;3555;53.248;10.336;2023-05-20T03:23:29;2.07;;;1.13;;
7027;SDS011;3555;53.248;10.336;2023-05-20T03:25:56;6.23;;;1.03;;
7027;SDS011;3555;53.248;10.336;2023-05-20T03:28:23;1.87;;;1.17;;
7027;SDS011;3555;53.248;10.336;2023-05-20T03:30:50;1.87;;;1.10;;
7027;SDS011;3555;53.248;10.336;2023-05-20T03:33:17;1.80;;;1.13;;
7027;SDS011;3555;53.248;10.336;2023-05-20T03:35:44;2.30;;;1.10;;
7027;SDS011;3555;53.248;10.336;2023-05-20T03:38:11;1.50;;;1.23;;
7027;SDS011;3555;53.248;10.336;2023-05-20T03:40:39;3.37;;;1.20;;
7027;SDS011;3555;53.248;10.336;2023-05-20T03:43:06;2.23;;;1.23;;
7027;SDS011;3555;53.248;10.336;2023-05-20T03:45:33;1.63;;;1.10;;
7027;SDS011;3555;53.248;10.336;2023-05-20T03:48:00;2.27;;;1.13;;
7027;SDS011;3555;53.248;10.336;2023-05-20T03:50:28;2.00;;;1.00;;
7027;SDS011;3555;53.248;10.336;2023-05-20T03:52:55;2.90;;;1.40;;
7027;SDS011;3555;53.248;10.336;2023-05-20T03:55:22;3.63;;;1.00;;
7027;SDS011;3555;53.248;10.336;2023-05-20T03:57:51;1.33;;;1.00;;
7027;SDS011;3555;53.248;10.336;2023-05-20T04:00:18;3.00;;;1.20;;
7027;SDS011;3555;53.248;10.336;2023-05-20T04:02:45;2.33;;;1.13;;
7027;SDS011;3555;53.248;10.336;2023-05-20T04:05:12;2.50;;;1.30;;
7027;SDS011;3555;53.248;10.336;2023-05-20T04:07:39;1.73;;;1.00;;
7027;SDS011;3555;53.248;10.336;2023-05-20T04:10:06;1.53;;;1.00;;
7027;SDS011;3555;53.248;10.336;2023-05-20T04:12:34;2.47;;;1.20;;
7027;SDS011;3555;53.248;10.336;2023-05-20T04:15:04;1.60;;;1.10;;
7027;SDS011;3555;53.248;10.336;2023-05-20T04:17:31;3.10;;;1.07;;
7027;SDS011;3555;53.248;10.336;2023-05-20T04:20:02;3.53;;;1.10;;
7027;SDS011;3555;53.248;10.336;2023-05-20T04:22:31;1.77;;;1.00;;
7027;SDS011;3555;53.248;10.336;2023-05-20T04:24:58;2.60;;;1.33;;
7027;SDS011;3555;53.248;10.336;2023-05-20T04:27:27;2.23;;;1.10;;
7027;SDS011;3555;53.248;10.336;2023-05-20T04:29:54;2.23;;;1.13;;
7027;SDS011;3555;53.248;10.336;2023-05-20T04:32:24;1.80;;;1.20;;
7027;SDS011;3555;53.248;10.336;2023-05-20T04:34:52;4.30;;;1.20;;
7027;SDS011;3555;53.248;10.336;2023-05-20T04:37:20;2.37;;;1.17;;
7027;SDS011;3555;53.248;10.336;2023-05-20T04:39:47;2.37;;;1.10;;
7027;SDS011;3555;53.248;10.336;2023-05-20T04:42:15;2.07;;;0.93;;
7027;SDS011;3555;53.248;10.336;2023-05-20T04:44:44;2.77;;;1.20;;
7027;SDS011;3555;53.248;10.336;2023-05-20T04:47:12;7.73;;;1.50;;
7027;SDS011;3555;53.248;10.336;2023-05-20T04:49:40;1.73;;;1.10;;
7027;SDS011;3555;53.248;10.336;2023-05-20T04:52:07;1.60;;;1.10;;
7027;SDS011;3555;53.248;10.336;2023-05-20T04:54:34;1.70;;;1.10;;
7027;SDS011;3555;53.248;10.336;2023-05-20T04:57:01;2.27;;;1.23;;
7027;SDS011;3555;53.248;10.336;2023-05-20T04:59:28;4.73;;;1.30;;
7027;SDS011;3555;53.248;10.336;2023-05-20T05:01:55;3.07;;;1.40;;
7027;SDS011;3555;53.248;10.336;2023-05-20T05:04:22;1.77;;;1.30;;
7027;SDS011;3555;53.248;10.336;2023-05-20T05:06:50;1.50;;;1.03;;
7027;SDS011;3555;53.248;10.336;2023-05-20T05:09:17;4.27;;;1.70;;
7027;SDS011;3555;53.248;10.336;2023-05-20T05:11:44;2.10;;;1.20;;
7027;SDS011;3555;53.248;10.336;2023-05-20T05:14:11;2.90;;;1.40;;
7027;SDS011;3555;53.248;10.336;2023-05-20T05:16:38;4.33;;;1.40;;
7027;SDS011;3555;53.248;10.336;2023-05-20T05:19:05;3.30;;;1.50;;
7027;SDS011;3555;53.248;10.336;2023-05-20T05:21:32;3.17;;;1.60;;
7027;SDS011;3555;53.248;10.336;2023-05-20T05:24:01;3.17;;;1.20;;
7027;SDS011;3555;53.248;10.336;2023-05-20T05:26:27;3.42;;;1.00;;
7027;SDS011;3555;53.248;10.336;2023-05-20T05:28:54;2.92;;;1.27;;
7027;SDS011;3555;53.248;10.336;2023-05-20T05:31:21;3.03;;;1.38;;
7027;SDS011;3555;53.248;10.336;2023-05-20T05:33:48;2.50;;;1.40;;
7027;SDS011;3555;53.248;10.336;2023-05-20T05:36:15;2.05;;;1.27;;
7027;SDS011;3555;53.248;10.336;2023-05-20T05:38:42;2.22;;;1.10;;
7027;SDS011;3555;53.248;10.336;2023-05-20T05:41:10;4.72;;;1.20;;
7027;SDS011;3555;53.248;10.336;2023-05-20T05:43:37;2.33;;;1.27;;
7027;SDS011;3555;53.248;10.336;2023-05-20T05:46:04;2.47;;;1.52;;
7027;SDS011;3555;53.248;10.336;2023-05-20T05:48:31;2.60;;;1.10;;
7027;SDS011;3555;53.248;10.336;2023-05-20T05:50:58;2.60;;;1.30;;
7027;SDS011;3555;53.248;10.336;2023-05-20T05:53:26;3.22;;;1.40;;
7027;SDS011;3555;53.248;10.336;2023-05-20T05:55:53;1.88;;;1.25;;
7027;SDS011;3555;53.248;10.336;2023-05-20T05:58:21;3.03;;;1.38;;
7027;SDS011;3555;53.248;10.336;2023-05-20T06:00:49;1.50;;;1.23;;
7027;SDS011;3555;53.248;10.336;2023-05-20T06:03:16;2.80;;;1.10;;
7027;SDS011;3555;53.248;10.336;2023-05-20T06:05:44;2.03;;;1.40;;
7027;SDS011;3555;53.248;10.336;2023-05-20T06:08:11;3.92;;;1.50;;
7027;SDS011;3555;53.248;10.336;2023-05-20T06:10:38;3.20;;;1.20;;
7027;SDS011;3555;53.248;10.336;2023-05-20T06:13:05;3.00;;;1.17;;
7027;SDS011;3555;53.248;10.336;2023-05-20T06:15:33;3.85;;;1.52;;
7027;SDS011;3555;53.248;10.336;2023-05-20T06:18:00;2.20;;;1.23;;
7027;SDS011;3555;53.248;10.336;2023-05-20T06:20:27;2.75;;;1.45;;
7027;SDS011;3555;53.248;10.336;2023-05-20T06:22:54;3.90;;;1.63;;
7027;SDS011;3555;53.248;10.336;2023-05-20T06:25:21;2.95;;;1.35;;
7027;SDS011;3555;53.248;10.336;2023-05-20T06:27:48;3.50;;;1.33;;
7027;SDS011;3555;53.248;10.336;2023-05-20T06:30:15;5.18;;;1.30;;
7027;SDS011;3555;53.248;10.336;2023-05-20T06:32:43;2.85;;;1.42;;
7027;SDS011;3555;53.248;10.336;2023-05-20T06:35:11;2.63;;;1.50;;
7027;SDS011;3555;53.248;10.336;2023-05-20T06:37:38;3.35;;;1.52;;
7027;SDS011;3555;53.248;10.336;2023-05-20T06:40:06;4.18;;;1.40;;
7027;SDS011;3555;53.248;10.336;2023-05-20T06:42:34;4.43;;;1.42;;
7027;SDS011;3555;53.248;10.336;2023-05-20T06:45:01;3.78;;;1.52;;
7027;SDS011;3555;53.248;10.336;2023-05-20T06:47:28;2.70;;;1.60;;
7027;SDS011;3555;53.248;10.336;2023-05-20T06:49:56;5.45;;;1.50;;
7027;SDS011;3555;53.248;10.336;2023-05-20T06:52:23;2.63;;;1.50;;
7027;SDS011;3555;53.248;10.336;2023-05-20T06:54:50;2.85;;;1.48;;
7027;SDS011;3555;53.248;10.336;2023-05-20T06:57:17;2.55;;;1.33;;
7027;SDS011;3555;53.248;10.336;2023-05-20T06:59:44;3.22;;;1.70;;
7027;SDS011;3555;53.248;10.336;2023-05-20T07:02:10;7.90;;;1.48;;
7027;SDS011;3555;53.248;10.336;2023-05-20T07:04:37;2.63;;;1.60;;
7027;SDS011;3555;53.248;10.336;2023-05-20T07:07:06;5.80;;;1.60;;
7027;SDS011;3555;53.248;10.336;2023-05-20T07:09:33;3.17;;;1.50;;
7027;SDS011;3555;53.248;10.336;2023-05-20T07:11:59;3.47;;;1.60;;
7027;SDS011;3555;53.248;10.336;2023-05-20T07:14:27;3.85;;;1.50;;
7027;SDS011;3555;53.248;10.336;2023-05-20T07:16:54;3.17;;;1.60;;
7027;SDS011;3555;53.248;10.336;2023-05-20T07:19:21;2.13;;;1.30;;
7027;SDS011;3555;53.248;10.336;2023-05-20T07:21:48;2.75;;;1.33;;
7027;SDS011;3555;53.248;10.336;2023-05-20T07:24:16;2.45;;;1.30;;
7027;SDS011;3555;53.248;10.336;2023-05-20T07:26:43;2.30;;;1.70;;
7027;SDS011;3555;53.248;10.336;2023-05-20T07:29:10;3.65;;;1.70;;
7027;SDS011;3555;53.248;10.336;2023-05-20T07:31:37;3.65;;;1.20;;
7027;SDS011;3555;53.248;10.336;2023-05-20T07:34:04;2.03;;;1.30;;
7027;SDS011;3555;53.248;10.336;2023-05-20T07:36:31;4.28;;;1.70;;
7027;SDS011;3555;53.248;10.336;2023-05-20T07:38:58;4.68;;;1.30;;
7027;SDS011;3555;53.248;10.336;2023-05-20T07:41:26;3.25;;;1.45;;
7027;SDS011;3555;53.248;10.336;2023-05-20T07:43:53;2.75;;;1.40;;
7027;SDS011;3555;53.248;10.336;2023-05-20T07:46:20;3.97;;;1.38;;
7027;SDS011;3555;53.248;10.336;2023-05-20T07:48:47;3.75;;;1.50;;
7027;SDS011;3555;53.248;10.336;2023-05-20T07:51:14;2.55;;;1.40;;
7027;SDS011;3555;53.248;10.336;2023-05-20T07:53:41;2.85;;;1.23;;
7027;SDS011;3555;53.248;10.336;2023-05-20T07:56:07;2.03;;;1.17;;
7027;SDS011;3555;53.248;10.336;2023-05-20T07:58:36;3.40;;;1.60;;
7027;SDS011;3555;53.248;10.336;2023-05-20T08:01:03;4.25;;;1.67;;
7027;SDS011;3555;53.248;10.336;2023-05-20T08:03:30;5.57;;;1.40;;
7027;SDS011;3555;53.248;10.336;2023-05-20T08:05:56;3.92;;;1.30;;
7027;SDS011;3555;53.248;10.336;2023-05-20T08:08:23;6.30;;;1.60;;
7027;SDS011;3555;53.248;10.336;2023-05-20T08:10:50;2.75;;;1.65;;
7027;SDS011;3555;53.248;10.336;2023-05-20T08:13:17;2.63;;;1.73;;
7027;SDS011;3555;53.248;10.336;2023-05-20T08:15:45;4.65;;;1.67;;
7027;SDS011;3555;53.248;10.336;2023-05-20T08:18:13;4.72;;;1.92;;
7027;SDS011;3555;53.248;10.336;2023-05-20T08:20:40;2.10;;;1.50;;
7027;SDS011;3555;53.248;10.336;2023-05-20T08:23:07;2.30;;;1.50;;
7027;SDS011;3555;53.248;10.336;2023-05-20T08:25:34;3.58;;;1.30;;
7027;SDS011;3555;53.248;10.336;2023-05-20T08:28:02;3.67;;;1.55;;
7027;SDS011;3555;53.248;10.336;2023-05-20T08:30:30;7.80;;;1.50;;
7027;SDS011;3555;53.248;10.336;2023-05-20T08:32:59;3.10;;;1.15;;
7027;SDS011;3555;53.248;10.336;2023-05-20T08:35:26;5.20;;;1.48;;
7027;SDS011;3555;53.248;10.336;2023-05-20T08:37:53;2.60;;;1.27;;
7027;SDS011;3555;53.248;10.336;2023-05-20T08:40:21;3.45;;;1.33;;
7027;SDS011;3555;53.248;10.336;2023-05-20T08:42:48;2.38;;;1.30;;
7027;SDS011;3555;53.248;10.336;2023-05-20T08:45:17;2.85;;;1.52;;
7027;SDS011;3555;53.248;10.336;2023-05-20T08:47:45;3.10;;;1.50;;
7027;SDS011;3555;53.248;10.336;2023-05-20T08:50:14;2.42;;;1.35;;
7027;SDS011;3555;53.248;10.336;2023-05-20T08:52:42;2.67;;;1.30;;
7027;SDS011;3555;53.248;10.336;2023-05-20T08:55:10;3.10;;;1.30;;
7027;SDS011;3555;53.248;10.336;2023-05-20T08:57:40;3.05;;;1.52;;
7027;SDS011;3555;53.248;10.336;2023-05-20T09:00:10;3.67;;;1.65;;
7027;SDS011;3555;53.248;10.336;2023-05-20T09:02:41;2.78;;;1.23;;
7027;SDS011;3555;53.248;10.336;2023-05-20T09:05:09;3.38;;;1.63;;
7027;SDS011;3555;53.248;10.336;2023-05-20T09:07:37;3.08;;;1.67;;
7027;SDS011;3555;53.248;10.336;2023-05-20T09:10:06;4.20;;;1.38;;
7027;SDS011;3555;53.248;10.336;2023-05-20T09:12:34;5.72;;;1.48;;
7027;SDS011;3555;53.248;10.336;2023-05-20T09:15:01;2.50;;;1.20;;
7027;SDS011;3555;53.248;10.336;2023-05-20T09:17:29;4.78;;;1.50;;
7027;SDS011;3555;53.248;10.336;2023-05-20T09:19:56;1.77;;;1.08;;
7027;SDS011;3555;53.248;10.336;2023-05-20T09:22:23;2.88;;;1.10;;
7027;SDS011;3555;53.248;10.336;2023-05-20T09:24:52;4.35;;;1.27;;
7027;SDS011;3555;53.248;10.336;2023-05-20T09:27:20;2.33;;;1.30;;
7027;SDS011;3555;53.248;10.336;2023-05-20T09:29:48;2.03;;;1.30;;
7027;SDS011;3555;53.248;10.336;2023-05-20T09:32:15;1.80;;;1.30;;
7027;SDS011;3555;53.248;10.336;2023-05-20T09:34:44;2.33;;;1.40;;
7027;SDS011;3555;53.248;10.336;2023-05-20T09:37:13;3.20;;;1.35;;
7027;SDS011;3555;53.248;10.336;2023-05-20T09:39:43;3.55;;;1.30;;
7027;SDS011;3555;53.248;10.336;2023-05-20T09:42:19;3.08;;;1.40;;
7027;SDS011;3555;53.248;10.336;2023-05-20T09:44:50;2.22;;;1.30;;
7027;SDS011;3555;53.248;10.336;2023-05-20T09:47:18;3.63;;;1.40;;
7027;SDS011;3555;53.248;10.336;2023-05-20T09:49:45;2.88;;;1.30;;
7027;SDS011;3555;53.248;10.336;2023-05-20T09:52:13;3.65;;;1.40;;
7027;SDS011;3555;53.248;10.336;2023-05-20T09:54:41;5.60;;;1.48;;
7027;SDS011;3555;53.248;10.336;2023-05-20T09:57:09;6.05;;;1.55;;
7027;SDS011;3555;53.248;10.336;2023-05-20T09:59:40;3.05;;;1.50;;
7027;SDS011;3555;53.248;10.336;2023-05-20T10:02:07;3.88;;;1.58;;
7027;SDS011;3555;53.248;10.336;2023-05-20T10:04:34;3.40;;;1.63;;
7027;SDS011;3555;53.248;10.336;2023-05-20T10:07:20;2.92;;;1.33;;
7027;SDS011;3555;53.248;10.336;2023-05-20T10:09:58;2.75;;;1.20;;
7027;SDS011;3555;53.248;10.336;2023-05-20T10:12:32;5.93;;;1.50;;
7027;SDS011;3555;53.248;10.336;2023-05-20T10:15:09;3.08;;;1.40;;
7027;SDS011;3555;53.248;10.336;2023-05-20T10:20:43;7.30;;;1.33;;
7027;SDS011;3555;53.248;10.336;2023-05-20T10:23:19;4.65;;;1.60;;
7027;SDS011;3555;53.248;10.336;2023-05-20T10:25:49;2.33;;;1.30;;
7027;SDS011;3555;53.248;10.336;2023-05-20T10:28:23;1.90;;;1.40;;
7027;SDS011;3555;53.248;10.336;2023-05-20T10:30:55;2.53;;;1.45;;
7027;SDS011;3555;53.248;10.336;2023-05-20T10:33:23;2.38;;;1.60;;
7027;SDS011;3555;53.248;10.336;2023-05-20T10:35:51;4.93;;;1.52;;
7027;SDS011;3555;53.248;10.336;2023-05-20T10:38:18;3.13;;;1.75;;
7027;SDS011;3555;53.248;10.336;2023-05-20T10:40:46;2.58;;;1.30;;
7027;SDS011;3555;53.248;10.336;2023-05-20T10:43:13;2.38;;;1.52;;
7027;SDS011;3555;53.248;10.336;2023-05-20T10:45:49;2.60;;;1.63;;
7027;SDS011;3555;53.248;10.336;2023-05-20T10:48:23;2.63;;;1.50;;
7027;SDS011;3555;53.248;10.336;2023-05-20T10:50:53;3.95;;;1.50;;
7027;SDS011;3555;53.248;10.336;2023-05-20T10:53:22;3.03;;;1.40;;
7027;SDS011;3555;53.248;10.336;2023-05-20T10:55:50;3.10;;;1.45;;
7027;SDS011;3555;53.248;10.336;2023-05-20T10:58:18;2.95;;;1.35;;
7027;SDS011;3555;53.248;10.336;2023-05-20T11:00:47;4.18;;;1.90;;
7027;SDS011;3555;53.248;10.336;2023-05-20T11:03:15;2.50;;;1.40;;
7027;SDS011;3555;53.248;10.336;2023-05-20T11:05:45;2.20;;;1.58;;
7027;SDS011;3555;53.248;10.336;2023-05-20T11:08:13;3.42;;;1.40;;
7027;SDS011;3555;53.248;10.336;2023-05-20T11:10:40;4.50;;;1.77;;
7027;SDS011;3555;53.248;10.336;2023-05-20T11:13:10;6.45;;;2.13;;
7027;SDS011;3555;53.248;10.336;2023-05-20T11:15:39;2.47;;;1.60;;
7027;SDS011;3555;53.248;10.336;2023-05-20T11:18:09;3.90;;;1.38;;
7027;SDS011;3555;53.248;10.336;2023-05-20T11:20:39;2.88;;;1.42;;
7027;SDS011;3555;53.248;10.336;2023-05-20T11:23:10;5.47;;;2.17;;
7027;SDS011;3555;53.248;10.336;2023-05-20T11:25:39;2.78;;;1.58;;
7027;SDS011;3555;53.248;10.336;2023-05-20T11:28:07;2.40;;;1.50;;
7027;SDS011;3555;53.248;10.336;2023-05-20T11:30:37;4.45;;;2.72;;
7027;SDS011;3555;53.248;10.336;2023-05-20T11:33:04;5.82;;;1.80;;
7027;SDS011;3555;53.248;10.336;2023-05-20T11:35:32;5.15;;;1.60;;
7027;SDS011;3555;53.248;10.336;2023-05-20T11:38:02;4.03;;;1.50;;
7027;SDS011;3555;53.248;10.336;2023-05-20T11:40:34;2.95;;;1.80;;
7027;SDS011;3555;53.248;10.336;2023-05-20T11:43:02;5.50;;;1.88;;
7027;SDS011;3555;53.248;10.336;2023-05-20T11:45:37;5.25;;;1.50;;
7027;SDS011;3555;53.248;10.336;2023-05-20T11:48:05;2.83;;;1.80;;
7027;SDS011;3555;53.248;10.336;2023-05-20T11:50:34;7.78;;;2.20;;
7027;SDS011;3555;53.248;10.336;2023-05-20T11:53:03;2.88;;;1.63;;
7027;SDS011;3555;53.248;10.336;2023-05-20T11:55:33;4.57;;;1.70;;
7027;SDS011;3555;53.248;10.336;2023-05-20T11:58:00;4.65;;;1.63;;
7027;SDS011;3555;53.248;10.336;2023-05-20T12:00:28;2.83;;;1.77;;
7027;SDS011;3555;53.248;10.336;2023-05-20T12:02:55;5.57;;;1.83;;
7027;SDS011;3555;53.248;10.336;2023-05-20T12:05:22;5.78;;;2.40;;
7027;SDS011;3555;53.248;10.336;2023-05-20T12:07:49;6.50;;;2.00;;
7027;SDS011;3555;53.248;10.336;2023-05-20T12:10:16;3.97;;;2.20;;
7027;SDS011;3555;53.248;10.336;2023-05-20T12:12:45;4.80;;;1.88;;
7027;SDS011;3555;53.248;10.336;2023-05-20T12:15:12;3.38;;;1.98;;
7027;SDS011;3555;53.248;10.336;2023-05-20T12:17:45;4.78;;;2.28;;
7027;SDS011;3555;53.248;10.336;2023-05-20T12:20:14;2.97;;;1.90;;
7027;SDS011;3555;53.248;10.336;2023-05-20T12:22:42;4.50;;;1.80;;
7027;SDS011;3555;53.248;10.336;2023-05-20T12:25:10;2.38;;;1.90;;
7027;SDS011;3555;53.248;10.336;2023-05-20T12:27:39;2.65;;;1.98;;
7027;SDS011;3555;53.248;10.336;2023-05-20T12:30:08;2.70;;;1.90;;
7027;SDS011;3555;53.248;10.336;2023-05-20T12:32:36;2.65;;;1.98;;
7027;SDS011;3555;53.248;10.336;2023-05-20T12:35:03;4.05;;;2.47;;
7027;SDS011;3555;53.248;10.336;2023-05-20T12:37:30;2.78;;;2.28;;
7027;SDS011;3555;53.248;10.336;2023-05-20T12:39:58;2.92;;;2.03;;
7027;SDS011;3555;53.248;10.336;2023-05-20T12:42:24;6.07;;;2.20;;
7027;SDS011;3555;53.248;10.336;2023-05-20T12:44:51;3.80;;;2.40;;
7027;SDS011;3555;53.248;10.336;2023-05-20T12:47:20;5.15;;;2.58;;
7027;SDS011;3555;53.248;10.336;2023-05-20T12:49:47;4.47;;;2.50;;
7027;SDS011;3555;53.248;10.336;2023-05-20T12:52:14;3.40;;;2.33;;
7027;SDS011;3555;53.248;10.336;2023-05-20T12:54:41;3.90;;;2.47;;
7027;SDS011;3555;53.248;10.336;2023-05-20T12:57:08;7.40;;;2.88;;
7027;SDS011;3555;53.248;10.336;2023-05-20T12:59:35;4.03;;;2.47;;
7027;SDS011;3555;53.248;10.336;2023-05-20T13:02:02;6.18;;;2.47;;
7027;SDS011;3555;53.248;10.336;2023-05-20T13:04:30;5.18;;;2.75;;
7027;SDS011;3555;53.248;10.336;2023-05-20T13:06:57;3.72;;;2.45;;
7027;SDS011;3555;53.248;10.336;2023-05-20T13:09:25;3.10;;;2.40;;
7027;SDS011;3555;53.248;10.336;2023-05-20T13:11:51;2.95;;;2.25;;
7027;SDS011;3555;53.248;10.336;2023-05-20T13:14:18;5.65;;;3.10;;
7027;SDS011;3555;53.248;10.336;2023-05-20T13:16:46;4.68;;;2.42;;
7027;SDS011;3555;53.248;10.336;2023-05-20T13:19:13;4.25;;;2.45;;
7027;SDS011;3555;53.248;10.336;2023-05-20T13:21:41;3.08;;;2.40;;
7027;SDS011;3555;53.248;10.336;2023-05-20T13:24:08;3.60;;;2.50;;
7027;SDS011;3555;53.248;10.336;2023-05-20T13:26:35;2.92;;;2.30;;
7027;SDS011;3555;53.248;10.336;2023-05-20T13:29:02;5.15;;;2.72;;
7027;SDS011;3555;53.248;10.336;2023-05-20T13:31:29;2.97;;;2.22;;
7027;SDS011;3555;53.248;10.336;2023-05-20T13:33:56;6.32;;;2.47;;
7027;SDS011;3555;53.248;10.336;2023-05-20T13:36:24;4.70;;;2.40;;
7027;SDS011;3555;53.248;10.336;2023-05-20T13:38:53;3.30;;;2.25;;
7027;SDS011;3555;53.248;10.336;2023-05-20T13:41:19;6.13;;;2.28;;
7027;SDS011;3555;53.248;10.336;2023-05-20T13:43:46;6.03;;;2.33;;
7027;SDS011;3555;53.248;10.336;2023-05-20T13:46:14;3.53;;;2.30;;
7027;SDS011;3555;53.248;10.336;2023-05-20T13:48:41;3.53;;;2.33;;
7027;SDS011;3555;53.248;10.336;2023-05-20T13:51:08;2.88;;;2.25;;
7027;SDS011;3555;53.248;10.336;2023-05-20T13:53:35;4.22;;;2.30;;
7027;SDS011;3555;53.248;10.336;2023-05-20T13:56:03;4.10;;;2.20;;
7027;SDS011;3555;53.248;10.336;2023-05-20T13:58:33;3.90;;;2.25;;
7027;SDS011;3555;53.248;10.336;2023-05-20T14:01:00;2.88;;;1.95;;
7027;SDS011;3555;53.248;10.336;2023-05-20T14:03:27;4.60;;;2.38;;
7027;SDS011;3555;53.248;10.336;2023-05-20T14:05:54;3.33;;;2.17;;
7027;SDS011;3555;53.248;10.336;2023-05-20T14:08:22;3.78;;;1.85;;
7027;SDS011;3555;53.248;10.336;2023-05-20T14:10:48;2.90;;;1.80;;
7027;SDS011;3555;53.248;10.336;2023-05-20T14:13:20;2.55;;;1.83;;
7027;SDS011;3555;53.248;10.336;2023-05-20T14:15:47;3.20;;;2.33;;
7027;SDS011;3555;53.248;10.336;2023-05-20T14:18:14;2.90;;;2.00;;
7027;SDS011;3555;53.248;10.336;2023-05-20T14:20:41;2.67;;;1.95;;
7027;SDS011;3555;53.248;10.336;2023-05-20T14:23:08;2.33;;;1.90;;
7027;SDS011;3555;53.248;10.336;2023-05-20T14:25:35;3.03;;;2.10;;
7027;SDS011;3555;53.248;10.336;2023-05-20T14:28:02;2.60;;;1.63;;
7027;SDS011;3555;53.248;10.336;2023-05-20T14:30:31;3.85;;;1.77;;
7027;SDS011;3555;53.248;10.336;2023-05-20T14:32:58;2.30;;;1.75;;
7027;SDS011;3555;53.248;10.336;2023-05-20T14:35:24;2.40;;;1.83;;
7027;SDS011;3555;53.248;10.336;2023-05-20T14:37:51;4.45;;;1.90;;
7027;SDS011;3555;53.248;10.336;2023-05-20T14:40:18;2.50;;;1.80;;
7027;SDS011;3555;53.248;10.336;2023-05-20T14:42:45;2.80;;;1.98;;
7027;SDS011;3555;53.248;10.336;2023-05-20T14:45:12;2.80;;;1.90;;
7027;SDS011;3555;53.248;10.336;2023-05-20T14:47:41;4.15;;;1.80;;
7027;SDS011;3555;53.248;10.336;2023-05-20T14:50:08;2.72;;;2.00;;
7027;SDS011;3555;53.248;10.336;2023-05-20T14:52:36;2.22;;;2.03;;
7027;SDS011;3555;53.248;10.336;2023-05-20T14:55:03;4.18;;;2.20;;
7027;SDS011;3555;53.248;10.336;2023-05-20T14:57:30;2.70;;;2.00;;
7027;SDS011;3555;53.248;10.336;2023-05-20T14:59:57;4.15;;;1.95;;
7027;SDS011;3555;53.248;10.336;2023-05-20T15:02:24;3.00;;;2.00;;
7027;SDS011;3555;53.248;10.336;2023-05-20T15:04:52;3.88;;;2.10;;
7027;SDS011;3555;53.248;10.336;2023-05-20T15:07:19;2.42;;;1.75;;